Time;durP1;ratioP1;P1;durP2;ratioP2;P2;SDS_P1;SDS_P2;PMS_P1;PMS_P2;Temp;Humidity;BMP_temperature;BMP_pressure;BME280_temperature;BME280_humidity;BME280_pressure;Samples;Min_cycle;Max_cycle;Signal;HPM_P1;HPM_P2
2022/01/25 00:29:02;;;;;;;13.47;9.13;;;5.90;99.90;;;;;;5046411;28;20430;-81
2022/01/25 00:31:14;;;;;;;11.00;9.73;;;5.90;99.90;;;;;;5045695;28;20846;-80
2022/01/25 00:33:43;;;;;;;13.17;9.77;;;5.90;99.90;;;;;;5047563;28;20421;-81
2022/01/25 00:36:12;;;;;;;12.60;9.60;;;5.90;99.90;;;;;;5028912;28;20512;-81
2022/01/25 00:38:37;;;;;;;13.43;10.13;;;5.90;99.90;;;;;;5029981;28;20473;-81
2022/01/25 00:41:03;;;;;;;12.57;9.73;;;5.90;99.90;;;;;;5029535;28;20492;-81
2022/01/25 00:43:30;;;;;;;11.70;9.20;;;5.90;99.90;;;;;;5030074;28;20266;-80
2022/01/25 00:46:00;;;;;;;17.03;10.60;;;5.80;99.90;;;;;;5030175;28;20496;-81
2022/01/25 00:53:59;;;;;;;15.10;9.47;;;5.80;99.90;;;;;;5048131;28;20437;-80
2022/01/25 00:56:29;;;;;;;16.37;11.70;;;5.70;99.90;;;;;;5028907;28;21006;-80
2022/01/25 00:58:54;;;;;;;12.40;10.33;;;5.70;99.90;;;;;;5029585;28;20424;-80
2022/01/25 01:01:20;;;;;;;15.20;10.37;;;5.70;99.90;;;;;;5046629;28;20431;-81
2022/01/25 01:03:46;;;;;;;13.20;10.53;;;5.70;99.90;;;;;;5030186;28;20191;-81
2022/01/25 01:06:12;;;;;;;15.43;11.70;;;5.70;99.90;;;;;;5045717;28;20937;-82
2022/01/25 01:08:38;;;;;;;15.00;11.60;;;5.60;99.90;;;;;;5029182;28;20186;-81
2022/01/25 01:11:07;;;;;;;18.07;11.03;;;5.60;99.90;;;;;;5027647;28;20175;-81
2022/01/25 01:13:56;;;;;;;15.40;11.57;;;5.60;99.90;;;;;;5028986;28;20182;-81
2022/01/25 01:30:30;;;;;;;14.00;12.30;;;5.70;99.90;;;;;;5041167;28;20405;-81
2022/01/25 01:48:58;;;;;;;12.80;10.67;;;5.70;99.90;;;;;;5040882;28;20431;-82
2022/01/25 01:51:32;;;;;;;14.53;10.20;;;5.80;99.90;;;;;;5022107;28;20415;-82
2022/01/25 01:54:03;;;;;;;14.67;11.20;;;5.70;99.90;;;;;;5022697;28;20410;-82
2022/01/25 01:56:28;;;;;;;15.63;11.10;;;5.80;99.90;;;;;;5039380;28;20454;-83
2022/01/25 01:58:58;;;;;;;17.10;12.10;;;5.80;99.90;;;;;;5022569;28;20475;-83
2022/01/25 02:01:26;;;;;;;14.23;11.00;;;5.80;99.90;;;;;;5022912;28;20175;-81
2022/01/25 02:03:53;;;;;;;15.27;10.93;;;5.80;99.90;;;;;;5023070;28;20969;-82
2022/01/25 02:06:19;;;;;;;16.40;11.80;;;5.80;99.90;;;;;;5023582;28;20507;-82
2022/01/25 02:08:45;;;;;;;15.30;11.70;;;5.80;99.90;;;;;;5022484;28;20418;-82
2022/01/25 02:11:11;;;;;;;16.00;11.60;;;5.70;99.90;;;;;;5022403;28;20418;-82
2022/01/25 02:13:39;;;;;;;16.50;11.20;;;5.70;99.90;;;;;;5023348;28;20915;-83
2022/01/25 02:16:08;;;;;;;17.87;11.47;;;5.70;99.90;;;;;;5022986;28;20434;-82
2022/01/25 02:24:02;;;;;;;16.10;11.63;;;5.60;99.90;;;;;;5040713;28;20954;-82
2022/01/25 02:26:27;;;;;;;15.00;12.50;;;5.70;99.90;;;;;;5023486;28;20449;-82
2022/01/25 02:28:53;;;;;;;17.40;12.20;;;5.70;99.90;;;;;;5041341;28;20179;-82
2022/01/25 02:31:19;;;;;;;16.17;12.20;;;5.70;99.90;;;;;;5023078;28;20187;-80
2022/01/25 02:33:45;;;;;;;13.00;10.43;;;5.70;99.90;;;;;;5024006;28;20217;-82
2022/01/25 02:36:15;;;;;;;14.20;9.80;;;5.70;99.90;;;;;;5040795;28;20206;-82
2022/01/25 02:38:40;;;;;;;13.13;10.10;;;5.70;99.90;;;;;;5023244;28;20472;-82
2022/01/25 02:41:06;;;;;;;14.70;11.70;;;5.70;99.90;;;;;;5041177;28;20424;-82
2022/01/25 02:43:34;;;;;;;15.27;12.20;;;5.70;99.90;;;;;;5041288;28;20304;-82
2022/01/25 02:48:59;;;;;;;15.13;10.93;;;5.70;99.90;;;;;;5041029;28;20417;-82
2022/01/25 02:52:02;;;;;;;15.97;11.70;;;5.70;99.90;;;;;;5041541;28;20415;-81
2022/01/25 02:54:29;;;;;;;15.10;10.77;;;5.70;99.90;;;;;;4988822;28;20437;-81
2022/01/25 02:56:55;;;;;;;13.30;10.57;;;5.70;99.90;;;;;;5023915;28;20449;-82
2022/01/25 02:59:21;;;;;;;16.70;12.03;;;5.70;99.90;;;;;;5023621;28;20418;-82
2022/01/25 03:01:49;;;;;;;12.63;10.63;;;5.70;99.90;;;;;;5024040;28;20484;-82
2022/01/25 03:04:17;;;;;;;20.30;12.93;;;5.70;99.90;;;;;;5024303;28;20424;-81
2022/01/25 03:06:43;;;;;;;14.30;11.10;;;5.70;99.90;;;;;;5023724;28;20464;-82
2022/01/25 03:09:10;;;;;;;17.00;12.33;;;5.70;99.90;;;;;;5041256;28;20419;-82
2022/01/25 03:11:36;;;;;;;16.47;12.90;;;5.70;99.90;;;;;;5024417;28;20425;-81
2022/01/25 03:14:07;;;;;;;20.77;11.90;;;5.70;99.90;;;;;;5024369;28;20503;-82
2022/01/25 03:19:26;;;;;;;18.10;12.60;;;5.70;99.90;;;;;;5041678;28;20426;-82
2022/01/25 03:21:49;;;;;;;24.67;14.00;;;5.70;99.90;;;;;;5041381;28;20477;-81
2022/01/25 03:24:14;;;;;;;16.00;12.40;;;5.70;99.90;;;;;;5042004;28;20424;-82
2022/01/25 03:26:40;;;;;;;14.37;12.00;;;5.70;99.90;;;;;;5023937;28;20233;-82
2022/01/25 03:29:05;;;;;;;16.17;12.30;;;5.70;99.90;;;;;;5041917;28;20187;-81
2022/01/25 03:31:31;;;;;;;14.97;13.00;;;5.70;99.90;;;;;;5024758;28;20254;-82
2022/01/25 03:33:57;;;;;;;15.27;12.23;;;5.60;99.90;;;;;;5026411;28;20187;-82
2022/01/25 03:36:22;;;;;;;16.93;11.70;;;5.60;99.90;;;;;;5045528;28;20639;-81
2022/01/25 03:38:48;;;;;;;19.10;11.80;;;5.60;99.90;;;;;;5045252;28;20421;-82
2022/01/25 03:41:15;;;;;;;16.90;12.93;;;5.60;99.90;;;;;;5046019;28;20654;-81
2022/01/25 03:43:42;;;;;;;16.20;11.83;;;5.70;99.90;;;;;;5046273;28;20267;-81
2022/01/25 03:46:18;;;;;;;17.23;12.97;;;5.70;99.90;;;;;;5028354;28;20460;-81
2022/01/25 03:51:28;;;;;;;16.10;11.50;;;5.70;99.90;;;;;;5045817;28;20447;-82
2022/01/25 03:53:54;;;;;;;14.60;11.30;;;5.70;99.90;;;;;;5029152;28;20434;-81
2022/01/25 03:56:23;;;;;;;17.73;12.20;;;5.70;99.90;;;;;;5045630;28;20211;-82
2022/01/25 03:58:49;;;;;;;15.97;11.90;;;5.70;99.90;;;;;;5027017;28;20193;-82
2022/01/25 04:01:16;;;;;;;16.17;12.47;;;5.70;99.90;;;;;;5044106;28;20509;-80
2022/01/25 04:03:48;;;;;;;18.33;13.03;;;5.70;99.90;;;;;;5027736;28;20499;-82
2022/01/25 04:06:19;;;;;;;18.50;12.47;;;5.70;99.90;;;;;;5045154;28;20434;-82
2022/01/25 04:08:45;;;;;;;18.13;12.47;;;5.60;99.90;;;;;;5027329;28;20426;-81
2022/01/25 04:11:10;;;;;;;16.00;12.27;;;5.70;99.90;;;;;;5027708;28;20475;-82
2022/01/25 04:13:36;;;;;;;18.63;13.20;;;5.70;99.90;;;;;;5045754;28;20197;-82
2022/01/25 04:16:09;;;;;;;15.27;12.47;;;5.70;99.90;;;;;;5028025;28;20637;-81
2022/01/25 04:18:37;;;;;;;21.13;14.77;;;5.70;99.90;;;;;;5028044;28;20198;-81
2022/01/25 04:21:24;;;;;;;17.27;12.87;;;5.70;99.90;;;;;;5045409;28;20448;-81
2022/01/25 04:26:33;;;;;;;21.63;13.27;;;5.70;99.90;;;;;;5046684;28;20434;-81
2022/01/25 04:28:59;;;;;;;19.73;13.73;;;5.70;99.90;;;;;;5029479;28;20427;-82
2022/01/25 04:31:25;;;;;;;17.30;12.50;;;5.70;99.90;;;;;;5029080;28;20195;-81
2022/01/25 04:34:37;;;;;;;20.83;14.97;;;5.70;99.90;;;;;;5029894;28;20170;-81
2022/01/25 04:50:08;;;;;;;19.33;13.67;;;5.70;99.90;;;;;;5046591;28;20770;-81
2022/01/25 04:52:43;;;;;;;22.20;14.50;;;5.70;99.90;;;;;;5045749;28;20452;-82
2022/01/25 04:55:23;;;;;;;19.80;12.90;;;5.70;99.90;;;;;;5045822;28;20422;-81
2022/01/25 04:58:02;;;;;;;21.30;14.60;;;5.70;99.90;;;;;;5046722;28;20428;-81
2022/01/25 05:00:28;;;;;;;21.60;14.10;;;5.60;99.90;;;;;;5029123;28;20426;-81
2022/01/25 05:03:07;;;;;;;17.87;13.67;;;5.70;99.90;;;;;;5046827;28;20530;-81
2022/01/25 05:05:38;;;;;;;19.90;14.00;;;5.60;99.90;;;;;;5046550;28;20436;-81
2022/01/25 05:10:34;;;;;;;20.57;13.13;;;5.60;99.90;;;;;;5047108;28;20445;-80
2022/01/25 05:13:23;;;;;;;20.40;12.67;;;5.70;99.90;;;;;;5046402;28;20187;-80
2022/01/25 05:16:03;;;;;;;19.73;12.47;;;5.60;99.90;;;;;;5029117;28;20468;-81
2022/01/25 05:18:51;;;;;;;20.73;13.73;;;5.70;99.90;;;;;;5045943;28;20401;-81
2022/01/25 05:23:59;;;;;;;24.40;13.60;;;5.60;99.90;;;;;;5047027;28;20433;-80
2022/01/25 05:26:26;;;;;;;23.33;14.47;;;5.60;99.90;;;;;;5028124;28;20447;-81
2022/01/25 05:28:52;;;;;;;19.50;13.73;;;5.60;99.90;;;;;;5028316;28;20206;-80
2022/01/25 05:31:18;;;;;;;21.70;13.20;;;5.60;99.90;;;;;;5028237;28;20415;-80
2022/01/25 05:33:43;;;;;;;20.30;13.00;;;5.60;99.90;;;;;;5045550;28;20422;-81
2022/01/25 05:36:09;;;;;;;18.70;12.50;;;5.60;99.90;;;;;;5045408;28;20214;-81
2022/01/25 05:38:35;;;;;;;24.10;13.77;;;5.60;99.90;;;;;;5045270;28;20217;-81
2022/01/25 05:41:02;;;;;;;19.60;13.33;;;5.60;99.90;;;;;;5026482;28;20195;-80
2022/01/25 05:46:11;;;;;;;19.97;13.50;;;5.60;99.90;;;;;;5045098;28;20550;-80
2022/01/25 05:48:37;;;;;;;24.50;14.20;;;5.60;99.90;;;;;;5045706;28;20418;-80
2022/01/25 05:51:03;;;;;;;19.97;12.40;;;5.60;99.90;;;;;;5027222;28;20434;-81
2022/01/25 05:53:28;;;;;;;17.90;13.10;;;5.60;99.90;;;;;;5044743;28;20222;-81
2022/01/25 05:55:54;;;;;;;18.90;13.20;;;5.60;99.90;;;;;;5025489;28;20211;-81
2022/01/25 05:58:20;;;;;;;19.30;14.37;;;5.60;99.90;;;;;;5038633;28;20547;-81
2022/01/25 06:00:46;;;;;;;23.23;13.20;;;5.60;99.90;;;;;;5032755;28;20937;-80
2022/01/25 06:03:12;;;;;;;17.93;13.37;;;5.60;99.90;;;;;;5032868;28;20461;-82
2022/01/25 06:05:37;;;;;;;20.57;14.53;;;5.60;99.90;;;;;;5032764;28;20655;-80
2022/01/25 06:08:04;;;;;;;18.20;13.20;;;5.60;99.90;;;;;;5032208;28;20269;-80
2022/01/25 06:10:30;;;;;;;19.03;13.93;;;5.60;99.90;;;;;;5014721;28;20221;-81
2022/01/25 06:12:56;;;;;;;23.70;14.10;;;5.60;99.90;;;;;;5032513;28;20419;-81
2022/01/25 06:15:22;;;;;;;20.87;12.63;;;5.60;99.90;;;;;;5032700;28;20436;-80
2022/01/25 06:17:49;;;;;;;24.57;15.00;;;5.60;99.90;;;;;;5032329;28;20290;-81
2022/01/25 06:20:16;;;;;;;19.70;13.33;;;5.60;99.90;;;;;;5014780;28;20440;-81
2022/01/25 06:22:42;;;;;;;19.30;14.23;;;5.50;99.90;;;;;;5032091;28;20504;-80
2022/01/25 06:25:10;;;;;;;19.83;12.20;;;5.60;99.90;;;;;;5014577;28;20438;-79
2022/01/25 06:27:43;;;;;;;18.97;13.10;;;5.50;99.90;;;;;;5014250;28;20477;-81
2022/01/25 06:30:14;;;;;;;19.97;13.93;;;5.50;99.90;;;;;;5032058;28;20410;-82
2022/01/25 06:32:40;;;;;;;18.03;11.80;;;5.50;99.90;;;;;;5014338;28;20430;-81
2022/01/25 06:35:07;;;;;;;19.27;12.40;;;5.50;99.90;;;;;;5031873;28;20425;-80
2022/01/25 06:37:33;;;;;;;20.43;14.40;;;5.50;99.90;;;;;;5031756;28;20407;-81
2022/01/25 06:39:59;;;;;;;18.57;12.70;;;5.50;99.90;;;;;;5014242;28;20936;-81
2022/01/25 06:42:28;;;;;;;22.10;14.30;;;5.50;99.90;;;;;;5014092;28;20520;-81
2022/01/25 06:44:57;;;;;;;19.43;13.50;;;5.40;99.90;;;;;;5031862;28;20173;-80
2022/01/25 06:47:23;;;;;;;19.53;14.23;;;5.50;99.90;;;;;;5031659;28;20414;-80
2022/01/25 06:49:48;;;;;;;20.13;13.80;;;5.50;99.90;;;;;;5013917;28;20928;-80
2022/01/25 06:52:14;;;;;;;20.43;14.90;;;5.50;99.90;;;;;;5014211;28;20600;-81
2022/01/25 06:54:40;;;;;;;22.13;14.23;;;5.50;99.90;;;;;;5032346;28;20206;-80
2022/01/25 06:57:06;;;;;;;22.93;13.40;;;5.50;99.90;;;;;;5031747;28;20221;-80
2022/01/25 06:59:32;;;;;;;21.10;13.20;;;5.50;99.90;;;;;;5032781;28;20425;-81
2022/01/25 07:01:57;;;;;;;20.00;13.33;;;5.50;99.90;;;;;;5014469;28;20458;-80
2022/01/25 07:04:23;;;;;;;23.90;14.53;;;5.50;99.90;;;;;;5014860;28;20176;-80
2022/01/25 07:06:48;;;;;;;23.37;14.67;;;5.50;99.90;;;;;;5032062;28;20204;-81
2022/01/25 07:09:14;;;;;;;19.43;13.60;;;5.50;99.90;;;;;;5036393;28;20179;-81
2022/01/25 07:11:39;;;;;;;18.37;13.63;;;5.60;99.90;;;;;;5036503;28;20179;-82
2022/01/25 07:14:05;;;;;;;18.57;14.03;;;5.60;99.90;;;;;;5036375;28;20633;-81
2022/01/25 07:16:30;;;;;;;21.80;14.70;;;5.60;99.90;;;;;;5018430;28;20195;-81
2022/01/25 07:18:56;;;;;;;31.20;15.90;;;5.60;99.90;;;;;;5036119;28;20175;-81
2022/01/25 07:21:22;;;;;;;22.17;14.57;;;5.50;99.90;;;;;;5036478;28;20300;-82
2022/01/25 07:23:47;;;;;;;26.10;14.13;;;5.60;99.90;;;;;;5036087;28;20234;-82
2022/01/25 07:26:13;;;;;;;22.47;14.80;;;5.50;99.90;;;;;;5036156;28;20195;-80
2022/01/25 07:28:38;;;;;;;19.47;13.40;;;5.50;99.90;;;;;;5017917;28;20188;-81
2022/01/25 07:31:04;;;;;;;23.50;15.60;;;5.60;99.90;;;;;;5035933;28;20634;-81
2022/01/25 07:33:30;;;;;;;25.93;14.23;;;5.60;99.90;;;;;;5035845;28;20174;-80
2022/01/25 07:35:56;;;;;;;24.00;14.83;;;5.50;99.90;;;;;;5017868;28;20458;-81
2022/01/25 07:38:22;;;;;;;27.80;13.83;;;5.40;99.90;;;;;;5038476;28;20634;-83
2022/01/25 07:40:48;;;;;;;26.50;15.30;;;5.40;99.90;;;;;;5023570;28;20187;-81
2022/01/25 07:43:13;;;;;;;26.70;15.83;;;5.40;99.90;;;;;;5024110;28;20268;-82
2022/01/25 07:45:39;;;;;;;25.27;13.40;;;5.40;99.90;;;;;;5023420;28;20438;-83
2022/01/25 07:48:06;;;;;;;29.20;14.10;;;5.30;99.90;;;;;;5023038;28;20259;-83
2022/01/25 07:50:33;;;;;;;26.10;16.20;;;5.20;99.90;;;;;;5040876;28;20436;-82
2022/01/25 07:52:59;;;;;;;27.50;14.47;;;5.20;99.90;;;;;;5023253;28;20426;-83
2022/01/25 07:55:24;;;;;;;22.70;14.50;;;5.10;99.90;;;;;;5040429;28;20523;-83
2022/01/25 07:57:50;;;;;;;25.27;14.43;;;5.00;99.90;;;;;;5022528;28;20186;-82
2022/01/25 08:00:16;;;;;;;26.20;14.73;;;5.10;99.90;;;;;;5040405;28;20238;-82
2022/01/25 08:02:44;;;;;;;23.40;14.50;;;5.10;99.90;;;;;;5039817;28;20217;-83
2022/01/25 08:05:12;;;;;;;23.50;14.07;;;5.10;99.90;;;;;;5040073;28;20419;-83
2022/01/25 08:07:37;;;;;;;26.50;14.90;;;5.10;99.90;;;;;;5039631;28;20413;-82
2022/01/25 08:10:03;;;;;;;26.87;14.50;;;5.00;99.90;;;;;;5040563;28;20418;-83
2022/01/25 08:12:29;;;;;;;24.90;14.97;;;5.10;99.90;;;;;;5022509;28;20178;-83
2022/01/25 08:14:57;;;;;;;26.43;15.30;;;5.10;99.90;;;;;;5021883;28;20442;-82
2022/01/25 08:17:23;;;;;;;32.23;15.17;;;5.20;99.90;;;;;;5021363;28;20228;-82
2022/01/25 08:19:48;;;;;;;25.40;15.17;;;5.20;99.90;;;;;;5020949;28;20840;-82
2022/01/25 08:22:14;;;;;;;24.77;14.70;;;5.20;99.90;;;;;;5021376;28;20299;-83
2022/01/25 08:24:40;;;;;;;29.63;16.70;;;5.20;99.90;;;;;;5039123;28;20201;-83
2022/01/25 08:27:06;;;;;;;31.63;17.73;;;5.20;99.90;;;;;;5038589;28;20285;-82
2022/01/25 08:29:31;;;;;;;24.03;14.07;;;5.20;99.90;;;;;;5038941;28;20181;-83
2022/01/25 08:31:57;;;;;;;28.43;17.20;;;5.20;99.90;;;;;;5020742;28;20875;-83
2022/01/25 08:34:22;;;;;;;28.07;14.67;;;5.30;99.90;;;;;;5021188;28;20569;-83
2022/01/25 08:36:48;;;;;;;23.87;15.23;;;5.30;99.90;;;;;;5038301;28;20229;-83
2022/01/25 08:39:14;;;;;;;30.20;16.23;;;5.30;99.90;;;;;;5020132;28;20658;-82
2022/01/25 08:41:40;;;;;;;22.80;14.70;;;5.30;99.90;;;;;;5038140;28;20190;-82
2022/01/25 08:44:05;;;;;;;26.90;15.47;;;5.30;99.90;;;;;;5038481;28;20590;-83
2022/01/25 08:46:32;;;;;;;23.40;15.60;;;5.40;99.90;;;;;;5019909;28;20440;-81
2022/01/25 08:48:58;;;;;;;29.00;15.77;;;5.40;99.90;;;;;;5037921;28;20414;-83
2022/01/25 08:51:23;;;;;;;23.87;14.37;;;5.40;99.90;;;;;;5037621;28;20416;-82
2022/01/25 08:53:49;;;;;;;21.13;14.80;;;5.40;99.90;;;;;;5037719;28;20181;-81
2022/01/25 08:56:15;;;;;;;29.67;16.47;;;5.40;99.90;;;;;;5036842;28;20218;-82
2022/01/25 08:58:41;;;;;;;24.43;15.17;;;5.50;99.90;;;;;;5019069;28;20236;-82
2022/01/25 09:01:07;;;;;;;25.23;14.50;;;5.50;99.90;;;;;;5018938;28;20602;-82
2022/01/25 09:03:33;;;;;;;24.23;16.53;;;5.50;99.90;;;;;;5019130;28;20480;-83
2022/01/25 09:05:58;;;;;;;25.73;14.73;;;5.60;99.90;;;;;;5036924;28;20892;-82
2022/01/25 09:08:27;;;;;;;23.97;15.70;;;5.60;99.90;;;;;;5018977;28;20183;-81
2022/01/25 09:10:57;;;;;;;22.63;13.87;;;5.50;99.90;;;;;;5019218;28;20212;-81
2022/01/25 09:13:24;;;;;;;24.10;14.87;;;5.50;99.90;;;;;;5018911;28;20435;-82
2022/01/25 09:15:49;;;;;;;25.37;15.17;;;5.50;99.90;;;;;;5018514;28;20440;-82
2022/01/25 09:18:15;;;;;;;23.97;14.20;;;5.50;99.90;;;;;;5036690;28;20473;-80
2022/01/25 09:20:41;;;;;;;27.30;14.20;;;5.50;99.90;;;;;;5037404;28;20191;-81
2022/01/25 09:23:07;;;;;;;24.17;14.97;;;5.40;99.90;;;;;;5035703;28;20210;-82
2022/01/25 09:25:33;;;;;;;24.10;13.83;;;5.50;99.90;;;;;;5036203;28;20524;-83
2022/01/25 09:28:00;;;;;;;26.60;15.97;;;5.60;99.90;;;;;;5017715;28;20188;-82
2022/01/25 09:30:25;;;;;;;24.03;15.27;;;5.60;99.90;;;;;;5035906;28;20422;-83
2022/01/25 09:32:51;;;;;;;25.60;16.53;;;5.60;99.90;;;;;;5035707;28;20473;-83
2022/01/25 09:35:17;;;;;;;27.10;15.80;;;5.60;99.90;;;;;;5035748;28;20260;-81
2022/01/25 09:37:43;;;;;;;21.83;13.80;;;5.60;99.90;;;;;;5035501;28;20421;-81
2022/01/25 09:40:10;;;;;;;29.60;17.30;;;5.70;99.90;;;;;;5017879;28;20256;-81
2022/01/25 09:42:37;;;;;;;28.87;15.80;;;5.70;99.90;;;;;;5017064;28;20206;-81
2022/01/25 09:45:03;;;;;;;24.60;15.20;;;5.70;99.90;;;;;;5035019;28;20415;-83
2022/01/25 09:47:30;;;;;;;27.27;16.40;;;5.70;99.90;;;;;;5035071;28;20426;-83
2022/01/25 09:49:55;;;;;;;25.50;14.03;;;5.80;99.90;;;;;;5035023;28;20454;-82
2022/01/25 09:52:22;;;;;;;29.73;14.93;;;5.80;99.90;;;;;;5017662;28;20439;-81
2022/01/25 09:54:56;;;;;;;24.53;15.27;;;5.90;99.90;;;;;;5035000;28;20214;-82
2022/01/25 09:57:22;;;;;;;23.90;14.27;;;5.90;99.90;;;;;;5016734;28;20436;-81
2022/01/25 09:59:48;;;;;;;24.20;14.57;;;5.90;99.90;;;;;;5016559;28;20434;-81
2022/01/25 10:02:48;;;;;;;27.83;16.00;;;5.90;99.90;;;;;;5016412;28;20544;-83
2022/01/25 10:05:27;;;;;;;22.43;13.97;;;5.90;99.90;;;;;;5033286;28;20424;-81
2022/01/25 10:07:58;;;;;;;28.20;15.63;;;5.90;99.90;;;;;;5015057;28;20430;-81
2022/01/25 10:10:26;;;;;;;26.60;15.20;;;5.80;99.90;;;;;;5033082;28;20857;-80
2022/01/25 10:12:52;;;;;;;25.27;15.03;;;5.90;99.90;;;;;;5032958;28;20501;-81
2022/01/25 10:15:18;;;;;;;25.33;14.13;;;5.90;99.90;;;;;;5032756;28;20488;-81
2022/01/25 10:17:44;;;;;;;31.00;16.80;;;6.00;99.90;;;;;;5032593;28;20417;-80
2022/01/25 10:20:31;;;;;;;26.03;15.77;;;6.10;99.90;;;;;;5015351;28;20183;-80
2022/01/25 10:23:00;;;;;;;26.80;16.17;;;6.20;99.90;;;;;;5032414;28;20847;-81
2022/01/25 10:25:38;;;;;;;28.23;15.80;;;6.20;99.90;;;;;;5032616;28;20472;-81
2022/01/25 10:28:12;;;;;;;23.43;14.70;;;6.20;99.90;;;;;;5014499;28;20479;-81
2022/01/25 10:30:49;;;;;;;26.50;15.27;;;6.20;99.90;;;;;;5014826;28;20525;-80
2022/01/25 10:33:25;;;;;;;31.80;15.67;;;6.30;99.90;;;;;;5014854;28;20434;-81
2022/01/25 10:35:52;;;;;;;25.33;15.20;;;6.30;99.90;;;;;;5014791;28;20453;-81
2022/01/25 10:38:32;;;;;;;31.50;16.00;;;6.30;99.90;;;;;;5032145;28;20442;-80
2022/01/25 10:41:08;;;;;;;28.57;15.53;;;6.40;99.90;;;;;;5014555;28;20429;-81
2022/01/25 10:43:36;;;;;;;27.10;15.63;;;6.30;99.90;;;;;;5014113;28;20466;-81
2022/01/25 10:46:10;;;;;;;29.93;15.20;;;6.30;99.90;;;;;;5014605;28;20448;-81
2022/01/25 10:48:37;;;;;;;27.20;16.10;;;6.30;99.90;;;;;;5032278;28;20928;-81
2022/01/25 10:51:06;;;;;;;27.23;16.03;;;6.40;99.90;;;;;;5014684;28;20415;-81
2022/01/25 10:53:32;;;;;;;25.40;14.97;;;6.40;99.90;;;;;;5014509;28;20426;-81
2022/01/25 10:56:00;;;;;;;27.03;16.60;;;6.40;99.90;;;;;;5014163;28;20470;-81
2022/01/25 10:58:26;;;;;;;29.10;15.37;;;6.50;99.90;;;;;;5014280;28;20179;-81
2022/01/25 11:00:52;;;;;;;26.63;14.47;;;6.50;99.90;;;;;;5032204;28;20426;-80
2022/01/25 11:03:28;;;;;;;23.83;14.70;;;6.50;99.90;;;;;;5014314;28;20466;-80
2022/01/25 11:05:55;;;;;;;25.80;14.40;;;6.60;99.90;;;;;;5031767;28;20432;-81
2022/01/25 11:08:24;;;;;;;24.43;15.20;;;6.60;99.90;;;;;;5014024;28;20779;-81
2022/01/25 11:10:55;;;;;;;26.47;15.73;;;6.60;99.90;;;;;;5014362;28;20416;-81
2022/01/25 11:15:53;;;;;;;23.63;15.80;;;6.70;99.90;;;;;;5032025;28;20492;-81
2022/01/25 11:18:19;;;;;;;30.73;17.10;;;6.60;99.90;;;;;;5014018;28;20419;-81
2022/01/25 11:20:45;;;;;;;30.37;16.23;;;6.70;99.90;;;;;;5014015;28;20561;-81
2022/01/25 11:23:12;;;;;;;26.50;15.90;;;6.60;99.90;;;;;;5031789;28;20211;-81
2022/01/25 11:25:39;;;;;;;26.90;16.00;;;6.50;99.90;;;;;;5031751;28;20465;-80
2022/01/25 11:28:05;;;;;;;26.97;14.97;;;6.60;99.90;;;;;;5031366;28;20566;-81
2022/01/25 11:30:31;;;;;;;29.10;15.10;;;6.50;99.90;;;;;;5013755;28;20419;-80
2022/01/25 11:32:57;;;;;;;29.60;16.40;;;6.50;99.90;;;;;;5013677;28;20795;-80
2022/01/25 11:35:26;;;;;;;25.90;15.23;;;6.40;99.90;;;;;;5013922;28;20277;-81
2022/01/25 11:37:52;;;;;;;36.00;16.40;;;6.40;99.90;;;;;;5014257;28;20240;-80
2022/01/25 11:40:41;;;;;;;28.37;15.97;;;6.40;99.90;;;;;;5013846;28;20838;-81
2022/01/25 11:43:12;;;;;;;32.20;18.47;;;6.50;99.90;;;;;;5013655;28;20234;-81
2022/01/25 11:45:41;;;;;;;26.57;16.00;;;6.50;99.90;;;;;;5013780;28;20828;-81
2022/01/25 11:48:08;;;;;;;31.13;18.80;;;6.50;99.90;;;;;;5013359;28;20465;-81
2022/01/25 11:50:40;;;;;;;31.47;18.60;;;6.40;99.90;;;;;;5013718;28;20472;-81
2022/01/25 11:53:09;;;;;;;31.63;17.50;;;6.40;99.90;;;;;;5013596;28;20799;-81
2022/01/25 11:55:37;;;;;;;27.90;16.47;;;6.30;99.90;;;;;;5016126;28;20469;-80
2022/01/25 11:58:10;;;;;;;28.87;15.40;;;6.30;99.90;;;;;;5048512;22;20489;-79
2022/01/25 12:00:41;;;;;;;31.33;15.77;;;6.40;99.90;;;;;;5038733;28;20433;-78
2022/01/25 12:03:45;;;;;;;32.07;16.57;;;6.40;99.90;;;;;;5039921;28;20461;-78
2022/01/25 12:06:27;;;;;;;28.70;17.00;;;6.30;99.90;;;;;;5040768;28;20419;-78
2022/01/25 12:11:47;;;;;;;26.63;16.27;;;6.40;99.90;;;;;;5058878;28;20484;-78
2022/01/25 12:14:25;;;;;;;26.87;15.27;;;6.40;99.90;;;;;;5040196;28;20813;-78
2022/01/25 12:16:50;;;;;;;29.70;17.50;;;6.40;99.90;;;;;;5039805;28;20848;-79
2022/01/25 12:19:31;;;;;;;28.53;17.70;;;6.30;99.90;;;;;;5040479;28;20464;-78
2022/01/25 12:21:59;;;;;;;33.63;17.33;;;6.40;99.90;;;;;;5039861;28;20698;-79
2022/01/25 12:24:47;;;;;;;27.93;15.93;;;6.40;99.90;;;;;;5039835;28;20419;-78
2022/01/25 12:27:33;;;;;;;28.27;15.37;;;6.40;99.90;;;;;;5040050;28;20414;-78
2022/01/25 12:30:12;;;;;;;26.93;15.30;;;6.40;99.90;;;;;;5039199;28;20443;-78
2022/01/25 12:32:50;;;;;;;26.40;15.30;;;6.40;99.90;;;;;;5039679;28;20472;-78
2022/01/25 12:35:30;;;;;;;31.27;17.63;;;6.40;99.90;;;;;;5039671;28;20429;-78
2022/01/25 12:37:59;;;;;;;29.53;16.50;;;6.40;99.90;;;;;;5038746;28;20422;-78
2022/01/25 12:40:25;;;;;;;28.23;15.90;;;6.40;99.90;;;;;;5039364;28;20790;-78
2022/01/25 12:43:17;;;;;;;28.30;16.93;;;6.40;99.90;;;;;;5038983;28;20468;-79
2022/01/25 12:45:45;;;;;;;34.77;17.30;;;6.30;99.90;;;;;;5030025;28;20423;-78
2022/01/25 12:48:13;;;;;;;25.93;16.47;;;6.40;99.90;;;;;;5038462;28;20434;-78
2022/01/25 12:50:43;;;;;;;30.07;16.23;;;6.40;99.90;;;;;;5039034;28;20410;-78
2022/01/25 12:53:11;;;;;;;30.77;16.10;;;6.40;99.90;;;;;;5039584;28;20460;-78
2022/01/25 12:55:40;;;;;;;31.57;16.97;;;6.40;99.90;;;;;;5040585;28;20418;-79
2022/01/25 12:58:07;;;;;;;27.60;15.90;;;6.40;99.90;;;;;;5040692;28;20434;-78
2022/01/25 13:00:40;;;;;;;30.67;17.40;;;6.50;99.90;;;;;;5040363;28;20522;-79
2022/01/25 13:03:11;;;;;;;29.57;16.80;;;6.50;99.90;;;;;;5039715;28;20888;-78
2022/01/25 13:05:51;;;;;;;23.80;14.37;;;6.50;99.90;;;;;;5039857;28;20504;-78
2022/01/25 13:08:26;;;;;;;27.20;15.03;;;6.50;99.90;;;;;;5041087;28;20417;-79
2022/01/25 13:10:56;;;;;;;26.20;15.50;;;6.50;99.90;;;;;;5041299;28;20420;-79
2022/01/25 13:13:29;;;;;;;23.90;14.57;;;6.50;99.90;;;;;;5040844;28;20438;-78
2022/01/25 13:15:56;;;;;;;24.97;14.77;;;6.50;99.90;;;;;;5039129;28;20931;-78
2022/01/25 13:18:28;;;;;;;23.90;14.87;;;6.60;99.90;;;;;;5038131;28;20520;-78
2022/01/25 13:21:06;;;;;;;28.77;14.70;;;6.60;99.90;;;;;;5038255;28;20422;-78
2022/01/25 13:23:33;;;;;;;25.50;15.70;;;6.60;99.90;;;;;;5038003;28;20475;-78
2022/01/25 13:26:10;;;;;;;23.97;15.70;;;6.60;99.90;;;;;;5038256;28;20441;-79
2022/01/25 13:31:09;;;;;;;28.00;14.57;;;6.60;99.90;;;;;;5056084;28;20461;-79
2022/01/25 13:33:35;;;;;;;28.87;15.97;;;6.50;99.90;;;;;;5038164;28;20877;-78
2022/01/25 13:36:01;;;;;;;30.10;17.53;;;6.50;99.90;;;;;;5037673;28;20424;-78
2022/01/25 13:38:36;;;;;;;26.10;15.70;;;6.60;99.90;;;;;;5037894;28;20420;-78
2022/01/25 13:41:18;;;;;;;28.37;16.07;;;6.60;99.90;;;;;;5037421;28;20456;-78
2022/01/25 13:46:29;;;;;;;31.13;16.50;;;6.60;99.90;;;;;;5056112;28;20449;-78
2022/01/25 13:49:01;;;;;;;28.83;18.00;;;6.60;99.90;;;;;;5037699;28;20452;-78
2022/01/25 13:51:30;;;;;;;30.97;17.13;;;6.60;99.90;;;;;;5037983;28;20418;-78
2022/01/25 13:53:59;;;;;;;27.60;16.70;;;6.60;99.90;;;;;;5038022;28;20545;-78
2022/01/25 13:56:28;;;;;;;28.77;16.37;;;6.60;99.90;;;;;;5037780;28;20422;-78
2022/01/25 13:58:55;;;;;;;32.60;17.17;;;6.60;99.90;;;;;;5036926;28;20468;-78
2022/01/25 14:01:24;;;;;;;33.67;19.07;;;6.60;99.90;;;;;;5038391;28;20433;-78
2022/01/25 14:03:59;;;;;;;31.00;18.47;;;6.60;99.90;;;;;;5037170;28;20472;-79
2022/01/25 14:06:26;;;;;;;28.50;16.70;;;6.50;99.90;;;;;;5037769;28;20422;-78
2022/01/25 14:09:06;;;;;;;37.40;18.87;;;6.60;99.90;;;;;;5037641;28;20412;-79
2022/01/25 14:25:33;;;;;;;30.80;18.00;;;6.60;99.90;;;;;;5055441;28;20464;-78
2022/01/25 14:28:02;;;;;;;29.00;17.53;;;6.60;99.90;;;;;;5037074;28;20418;-78
2022/01/25 14:30:35;;;;;;;30.70;16.83;;;6.60;99.90;;;;;;5037204;28;20418;-78
2022/01/25 14:33:04;;;;;;;32.30;18.27;;;6.50;99.90;;;;;;5037292;28;20448;-78
2022/01/25 14:35:31;;;;;;;31.57;17.53;;;6.50;99.90;;;;;;5036678;28;20425;-79
2022/01/25 14:37:57;;;;;;;31.33;17.87;;;6.50;99.90;;;;;;5037907;28;20862;-79
2022/01/25 14:40:23;;;;;;;30.73;16.60;;;6.50;99.90;;;;;;5042118;28;20429;-79
2022/01/25 14:42:49;;;;;;;30.47;17.63;;;6.50;99.90;;;;;;5041680;28;20462;-79
2022/01/25 14:45:22;;;;;;;27.83;17.63;;;6.50;99.90;;;;;;5041257;28;20243;-79
2022/01/25 14:47:51;;;;;;;36.10;18.20;;;6.40;99.90;;;;;;5041556;28;20432;-79
2022/01/25 14:50:23;;;;;;;32.67;17.57;;;6.40;99.90;;;;;;5041834;28;20422;-79
2022/01/25 14:53:10;;;;;;;28.47;17.10;;;6.40;99.90;;;;;;5041300;28;20982;-79